Time;durP1;ratioP1;P1;durP2;ratioP2;P2;SDS_P1;SDS_P2;PMS_P1;PMS_P2;Temp;Humidity;BMP_temperature;BMP_pressure;BME280_temperature;BME280_humidity;BME280_pressure;Samples;Min_cycle;Max_cycle;Signal;HPM_P1;HPM_P2
2024/01/30 00:01:43;;;;;;;261.60;139.30;;;-1.40;1.00;;;;;;5077915;28;20075;-82
2024/01/30 00:04:11;;;;;;;255.65;140.27;;;-1.50;99.90;;;;;;5080769;28;20131;-83
2024/01/30 00:06:40;;;;;;;250.40;136.65;;;-1.60;1.00;;;;;;5061837;28;20056;-84
2024/01/30 00:09:08;;;;;;;249.80;132.40;;;-1.50;1.00;;;;;;5060993;28;20040;-85
2024/01/30 00:11:36;;;;;;;242.15;130.15;;;-1.60;1.00;;;;;;5076921;28;20060;-84
2024/01/30 00:14:04;;;;;;;232.07;126.03;;;-1.50;1.00;;;;;;5061962;28;20040;-83
2024/01/30 00:16:32;;;;;;;229.85;125.78;;;-1.50;1.00;;;;;;5064474;28;20071;-84
2024/01/30 00:19:02;;;;;;;241.73;129.00;;;-1.60;1.00;;;;;;5059460;28;20045;-83
2024/01/30 00:21:29;;;;;;;248.70;133.80;;;-1.60;1.00;;;;;;5065736;28;20071;-84
2024/01/30 00:23:58;;;;;;;242.15;132.57;;;-1.70;1.00;;;;;;5066477;28;20109;-84
2024/01/30 00:26:26;;;;;;;241.32;131.32;;;-1.70;90.00;;;;;;5080913;28;20040;-84
2024/01/30 00:28:53;;;;;;;223.05;125.93;;;-1.70;99.90;;;;;;5063007;28;20565;-84
2024/01/30 00:31:21;;;;;;;220.43;123.97;;;-1.70;1.00;;;;;;5066285;28;20457;-83
2024/01/30 00:33:49;;;;;;;229.68;122.47;;;-1.70;1.00;;;;;;5061049;28;20086;-83
2024/01/30 00:36:16;;;;;;;226.38;122.45;;;-1.60;1.00;;;;;;5065149;28;20044;-83
2024/01/30 00:38:44;;;;;;;220.80;121.57;;;-1.70;99.90;;;;;;5083905;28;20044;-83
2024/01/30 00:41:13;;;;;;;240.10;128.88;;;-1.70;1.00;;;;;;5064407;28;20052;-83
2024/01/30 00:43:41;;;;;;;223.55;127.25;;;-1.70;99.90;;;;;;5066925;28;20493;-82
2024/01/30 00:46:09;;;;;;;225.88;124.43;;;-1.70;1.00;;;;;;5062696;28;20047;-83
2024/01/30 00:48:36;;;;;;;216.60;119.40;;;-1.70;99.90;;;;;;5061248;28;20052;-83
2024/01/30 00:51:04;;;;;;;209.32;113.07;;;-1.70;99.90;;;;;;5062582;28;20565;-84
2024/01/30 00:53:33;;;;;;;196.25;110.53;;;-1.80;99.90;;;;;;5064799;28;20106;-83
2024/01/30 00:56:01;;;;;;;194.60;106.00;;;-1.70;1.00;;;;;;5059774;28;20049;-83
2024/01/30 00:58:30;;;;;;;193.27;104.75;;;-1.80;99.90;;;;;;5061049;28;20106;-84
2024/01/30 01:00:57;;;;;;;207.07;107.90;;;-1.80;99.90;;;;;;5061073;28;20037;-84
2024/01/30 01:03:25;;;;;;;180.40;97.95;;;-1.80;99.90;;;;;;5057509;28;20072;-84
2024/01/30 01:05:52;;;;;;;178.27;100.03;;;-1.80;99.90;;;;;;5059956;28;20145;-83
2024/01/30 01:08:20;;;;;;;186.25;106.45;;;-1.90;99.90;;;;;;5057746;28;20044;-84
2024/01/30 01:10:47;;;;;;;195.77;111.10;;;-1.90;99.90;;;;;;5059711;28;20139;-83
2024/01/30 01:13:15;;;;;;;218.00;123.25;;;-2.00;99.90;;;;;;5059896;28;20049;-83
2024/01/30 01:15:44;;;;;;;231.65;124.60;;;-2.00;1.00;;;;;;5057375;28;20081;-83
2024/01/30 01:18:11;;;;;;;218.90;120.75;;;-1.90;99.90;;;;;;5059074;28;20103;-83
2024/01/30 01:20:39;;;;;;;218.05;115.75;;;-1.90;99.90;;;;;;5059717;28;20512;-82
2024/01/30 01:23:06;;;;;;;190.38;105.57;;;-1.90;1.00;;;;;;5063882;28;20051;-84
2024/01/30 01:25:34;;;;;;;185.80;104.45;;;-2.00;1.00;;;;;;5056638;28;20132;-83
2024/01/30 01:28:01;;;;;;;199.20;110.40;;;-2.10;4.00;;;;;;5065015;28;20483;-83
2024/01/30 01:30:29;;;;;;;207.63;113.68;;;-2.00;99.90;;;;;;5067158;28;20052;-83
2024/01/30 01:33:00;;;;;;;203.88;111.38;;;-2.10;1.00;;;;;;5066834;28;20037;-84
2024/01/30 01:35:28;;;;;;;191.68;106.03;;;-2.10;1.00;;;;;;5060734;28;20033;-82
2024/01/30 01:37:56;;;;;;;191.73;104.78;;;-2.10;1.00;;;;;;5063674;28;20052;-84
2024/01/30 01:40:24;;;;;;;212.85;113.35;;;-2.00;32.40;;;;;;5061782;28;20128;-82
2024/01/30 01:42:52;;;;;;;225.13;122.95;;;-2.10;1.00;;;;;;5062851;28;20049;-84
2024/01/30 01:45:20;;;;;;;226.63;122.32;;;-2.20;99.90;;;;;;5053381;28;20048;-84
2024/01/30 01:47:51;;;;;;;206.32;113.15;;;-2.20;99.90;;;;;;5060657;28;20124;-85
2024/01/30 01:50:21;;;;;;;193.40;105.60;;;-2.20;99.90;;;;;;5075363;28;20041;-83
2024/01/30 01:52:49;;;;;;;190.57;104.47;;;-2.30;1.00;;;;;;5075725;28;20052;-84
2024/01/30 01:55:18;;;;;;;186.60;102.35;;;-2.30;1.00;;;;;;5058645;28;20412;-83
2024/01/30 01:57:46;;;;;;;174.75;98.85;;;-2.30;1.00;;;;;;5059579;28;20101;-83
2024/01/30 02:00:15;;;;;;;176.05;95.43;;;-2.30;1.00;;;;;;5062990;28;20041;-82
2024/01/30 02:02:44;;;;;;;181.57;98.55;;;-2.30;1.00;;;;;;5058852;28;20508;-82
2024/01/30 02:05:12;;;;;;;176.13;99.22;;;-2.30;1.00;;;;;;5056513;28;20099;-83
2024/01/30 02:07:42;;;;;;;170.98;92.15;;;-2.40;1.00;;;;;;5061925;28;20037;-81
2024/01/30 02:10:10;;;;;;;154.15;87.55;;;-2.40;99.90;;;;;;5077658;28;20471;-82
2024/01/30 02:12:37;;;;;;;161.35;89.78;;;-2.40;99.90;;;;;;5062738;28;20145;-83
2024/01/30 02:15:07;;;;;;;157.40;86.30;;;-2.40;99.90;;;;;;5059441;28;20483;-81
2024/01/30 02:17:34;;;;;;;156.38;85.50;;;-2.40;1.00;;;;;;5060236;28;20032;-84
2024/01/30 02:20:03;;;;;;;161.15;91.05;;;-2.30;2.30;;;;;;5059634;28;20178;-82
2024/01/30 02:22:33;;;;;;;162.85;91.82;;;-2.30;1.00;;;;;;5057552;28;20041;-83
2024/01/30 02:25:01;;;;;;;153.38;81.60;;;-2.30;1.00;;;;;;5075892;28;20049;-83
2024/01/30 02:27:28;;;;;;;149.10;81.60;;;-2.30;1.00;;;;;;5060784;28;20660;-83
2024/01/30 02:29:55;;;;;;;154.88;83.95;;;-2.40;1.00;;;;;;5059121;28;20144;-82
2024/01/30 02:32:23;;;;;;;146.85;81.93;;;-2.40;1.00;;;;;;5057999;28;20152;-83
2024/01/30 02:34:50;;;;;;;146.60;79.20;;;-2.30;1.00;;;;;;5061899;28;20632;-83
2024/01/30 02:37:18;;;;;;;151.43;79.47;;;-2.40;99.90;;;;;;5059992;28;20040;-83
2024/01/30 02:39:47;;;;;;;133.82;74.22;;;-2.50;1.00;;;;;;5060319;28;20045;-82
2024/01/30 02:42:14;;;;;;;133.43;75.85;;;-2.60;1.00;;;;;;5059700;28;20136;-82
2024/01/30 02:44:43;;;;;;;128.07;70.07;;;-2.80;1.00;;;;;;5056253;28;20048;-84
2024/01/30 02:47:10;;;;;;;124.03;66.80;;;-2.80;1.00;;;;;;5060003;28;20052;-82
2024/01/30 02:49:38;;;;;;;117.13;66.97;;;-2.80;99.90;;;;;;5057360;28;20511;-83
2024/01/30 02:52:06;;;;;;;108.80;62.50;;;-2.80;99.90;;;;;;5058932;28;20437;-82
2024/01/30 02:54:33;;;;;;;109.18;59.88;;;-2.70;1.00;;;;;;5058753;28;20060;-83
2024/01/30 02:57:02;;;;;;;108.38;62.58;;;-2.70;99.90;;;;;;5059792;28;20044;-82
2024/01/30 02:59:29;;;;;;;115.63;64.25;;;-2.60;25.90;;;;;;5058395;28;20052;-82
2024/01/30 03:01:57;;;;;;;116.93;68.18;;;-2.60;1.00;;;;;;5055675;28;20045;-84
2024/01/30 03:04:24;;;;;;;121.80;69.75;;;-2.60;99.90;;;;;;5053382;28;20514;-83
2024/01/30 03:06:52;;;;;;;129.10;72.78;;;-2.70;99.90;;;;;;5059069;28;20052;-83
2024/01/30 03:09:20;;;;;;;133.95;73.95;;;-2.70;99.90;;;;;;5059814;28;20132;-83
2024/01/30 03:11:47;;;;;;;125.60;71.78;;;-2.80;1.00;;;;;;5057902;28;20041;-82
2024/01/30 03:14:16;;;;;;;124.20;71.97;;;-2.70;1.00;;;;;;5055466;28;20121;-84
2024/01/30 03:16:44;;;;;;;128.20;71.05;;;-2.70;17.30;;;;;;5058476;28;20040;-83
2024/01/30 03:19:11;;;;;;;130.07;71.38;;;-2.70;34.30;;;;;;5057813;28;20565;-82
2024/01/30 03:21:39;;;;;;;120.63;68.32;;;-2.80;1.00;;;;;;5060973;28;20095;-83
2024/01/30 03:24:09;;;;;;;134.35;74.13;;;-2.90;1.00;;;;;;5063128;28;20052;-84
2024/01/30 03:26:36;;;;;;;131.30;75.80;;;-3.00;1.00;;;;;;5061175;28;20399;-83
2024/01/30 03:29:04;;;;;;;120.53;70.93;;;-3.00;1.00;;;;;;5058027;28;20045;-81
2024/01/30 03:31:32;;;;;;;130.60;73.45;;;-3.00;99.90;;;;;;5057586;28;20053;-83
2024/01/30 03:34:00;;;;;;;130.73;74.07;;;-3.10;99.90;;;;;;5057817;28;20499;-81
2024/01/30 03:36:27;;;;;;;122.68;66.72;;;-3.10;99.90;;;;;;5056606;28;20552;-82
2024/01/30 03:38:55;;;;;;;105.43;60.85;;;-3.10;99.90;;;;;;5075078;28;20504;-84
2024/01/30 03:41:22;;;;;;;97.43;58.67;;;-3.20;1.00;;;;;;5060162;28;20067;-83
2024/01/30 03:43:50;;;;;;;88.97;52.28;;;-3.10;8.70;;;;;;5059750;28;20132;-83
2024/01/30 03:46:17;;;;;;;88.80;50.72;;;-3.00;99.90;;;;;;5060321;28;20052;-83
2024/01/30 03:48:47;;;;;;;85.95;50.95;;;-3.10;99.90;;;;;;5055318;28;20657;-83
2024/01/30 03:51:15;;;;;;;86.18;50.83;;;-3.10;99.90;;;;;;5054559;28;20059;-82
2024/01/30 03:53:43;;;;;;;88.95;50.10;;;-3.00;99.90;;;;;;5059615;28;20143;-82
2024/01/30 03:56:11;;;;;;;93.95;52.33;;;-3.00;1.00;;;;;;5060758;28;20056;-83
2024/01/30 03:58:39;;;;;;;91.57;53.83;;;-3.10;1.00;;;;;;5060708;28;20060;-82
2024/01/30 04:01:06;;;;;;;94.10;54.03;;;-3.10;1.00;;;;;;5062940;28;20412;-83
2024/01/30 04:03:34;;;;;;;98.88;54.08;;;-3.10;1.00;;;;;;5059537;28;20040;-84
2024/01/30 04:06:03;;;;;;;98.53;56.45;;;-3.00;1.00;;;;;;5076306;28;20560;-82
2024/01/30 04:08:30;;;;;;;104.10;59.63;;;-3.10;99.90;;;;;;5077122;28;20481;-84
2024/01/30 04:10:58;;;;;;;109.85;63.40;;;-3.00;99.90;;;;;;5064957;28;20446;-83
2024/01/30 04:13:26;;;;;;;108.25;64.80;;;-3.10;1.00;;;;;;5063316;28;20118;-85
2024/01/30 04:15:55;;;;;;;107.95;65.97;;;-3.00;99.90;;;;;;5064169;28;20126;-82
2024/01/30 04:18:25;;;;;;;112.82;65.70;;;-3.00;1.00;;;;;;5060434;28;20041;-83
2024/01/30 04:20:53;;;;;;;114.40;63.85;;;-3.10;1.00;;;;;;5064567;28;20089;-83
2024/01/30 04:23:22;;;;;;;117.60;64.78;;;-3.10;1.00;;;;;;5074595;28;20072;-83
2024/01/30 04:25:50;;;;;;;109.55;63.05;;;-3.10;1.00;;;;;;5073897;28;20072;-83
2024/01/30 04:28:17;;;;;;;117.50;64.95;;;-3.20;1.00;;;;;;5059957;28;20045;-83
2024/01/30 04:30:45;;;;;;;120.97;64.50;;;-3.10;1.00;;;;;;5062295;28;20545;-83
2024/01/30 04:33:13;;;;;;;103.78;57.22;;;-3.20;1.00;;;;;;5064980;28;20072;-83
2024/01/30 04:35:40;;;;;;;104.88;56.17;;;-3.20;1.00;;;;;;5059371;28;20049;-84
2024/01/30 04:38:13;;;;;;;104.03;58.78;;;-3.30;99.90;;;;;;5062662;28;20063;-85
2024/01/30 04:40:47;;;;;;;103.60;55.55;;;-3.20;99.90;;;;;;5059895;28;20041;-84
2024/01/30 04:43:21;;;;;;;93.82;53.17;;;-3.20;82.80;;;;;;5062554;28;20495;-83
2024/01/30 04:45:50;;;;;;;96.20;54.93;;;-3.30;99.90;;;;;;5060043;28;20647;-81
2024/01/30 04:48:17;;;;;;;101.03;57.08;;;-3.30;10.50;;;;;;5057406;28;20701;-83
2024/01/30 04:50:47;;;;;;;103.85;60.78;;;-3.30;99.90;;;;;;5060500;28;20128;-83
2024/01/30 04:53:14;;;;;;;109.90;61.63;;;-3.20;99.90;;;;;;5062213;28;20480;-83
2024/01/30 04:55:44;;;;;;;112.68;61.63;;;-3.20;1.00;;;;;;5066071;28;20060;-83
2024/01/30 04:58:13;;;;;;;138.60;78.80;;;-3.40;1.00;;;;;;4991472;28;20120;-77
2024/01/30 05:00:41;;;;;;;121.75;66.97;;;-3.40;99.90;;;;;;5003412;28;20131;-77
2024/01/30 05:03:08;;;;;;;109.78;58.05;;;-3.40;99.90;;;;;;4996307;28;20136;-76
2024/01/30 05:05:36;;;;;;;101.43;58.60;;;-3.40;1.00;;;;;;5013505;28;20049;-77
2024/01/30 05:08:04;;;;;;;108.30;60.55;;;-3.50;1.00;;;;;;5011992;28;20133;-74
2024/01/30 05:10:31;;;;;;;110.05;59.58;;;-3.50;99.90;;;;;;5011912;28;20402;-75
2024/01/30 05:12:59;;;;;;;99.85;58.63;;;-3.50;99.90;;;;;;5012967;28;20042;-75
2024/01/30 05:15:28;;;;;;;116.65;62.42;;;-3.60;61.40;;;;;;4995052;28;20133;-76
2024/01/30 05:17:55;;;;;;;125.72;68.13;;;-3.70;99.90;;;;;;5013077;28;20092;-77
2024/01/30 05:20:22;;;;;;;127.13;69.10;;;-3.70;1.00;;;;;;5012495;28;20473;-75
2024/01/30 05:22:52;;;;;;;119.90;68.43;;;-3.70;1.00;;;;;;5012525;28;20069;-77
2024/01/30 05:25:19;;;;;;;143.07;82.10;;;-3.60;1.00;;;;;;5015990;28;20457;-75
2024/01/30 05:27:47;;;;;;;142.43;85.13;;;-3.60;1.00;;;;;;5000600;28;20045;-76
2024/01/30 05:30:15;;;;;;;140.73;80.20;;;-3.60;1.00;;;;;;5014174;28;20046;-76
2024/01/30 05:32:44;;;;;;;146.85;80.80;;;-3.70;1.00;;;;;;5013043;28;20504;-75
2024/01/30 05:35:12;;;;;;;136.57;78.07;;;-3.70;1.00;;;;;;4996695;28;20454;-75
2024/01/30 05:37:41;;;;;;;133.63;78.32;;;-3.70;1.00;;;;;;5004029;28;20054;-76
2024/01/30 05:40:09;;;;;;;124.20;70.78;;;-3.70;99.90;;;;;;4999089;28;20043;-75
2024/01/30 05:42:37;;;;;;;128.93;71.18;;;-3.60;99.90;;;;;;5016017;28;20501;-76
2024/01/30 05:45:05;;;;;;;143.60;79.60;;;-3.60;99.90;;;;;;4995711;28;20050;-76
2024/01/30 05:47:32;;;;;;;159.68;84.38;;;-3.60;99.90;;;;;;5007238;28;20133;-75
2024/01/30 05:50:01;;;;;;;166.73;93.68;;;-3.60;70.60;;;;;;5014567;28;20113;-75
2024/01/30 05:52:29;;;;;;;164.82;93.13;;;-3.60;1.00;;;;;;5013664;28;20050;-75
2024/01/30 05:54:57;;;;;;;142.43;81.05;;;-3.60;76.30;;;;;;5010842;28;20437;-76
2024/01/30 05:57:24;;;;;;;159.55;87.65;;;-3.70;1.00;;;;;;5011507;28;20052;-75
2024/01/30 05:59:52;;;;;;;147.38;83.60;;;-3.80;23.70;;;;;;4998313;28;20505;-75
2024/01/30 06:02:19;;;;;;;161.63;90.15;;;-3.70;1.00;;;;;;4996570;28;20053;-75
2024/01/30 06:04:47;;;;;;;197.68;103.32;;;-3.80;99.90;;;;;;5014310;28;20050;-77
2024/01/30 06:07:22;;;;;;;183.85;99.65;;;-3.80;99.90;;;;;;5013688;28;20541;-76
2024/01/30 06:09:50;;;;;;;167.10;93.82;;;-3.80;99.90;;;;;;5011012;28;20049;-76
2024/01/30 06:12:17;;;;;;;189.75;110.20;;;-3.80;99.90;;;;;;5011493;28;20046;-77
2024/01/30 06:14:45;;;;;;;215.05;125.88;;;-3.70;99.90;;;;;;4994373;28;20045;-76
2024/01/30 06:17:13;;;;;;;196.27;111.95;;;-3.60;6.90;;;;;;4993329;28;20037;-75
2024/01/30 06:19:41;;;;;;;183.93;102.57;;;-3.60;1.00;;;;;;5009928;28;20093;-76
2024/01/30 06:22:08;;;;;;;191.98;108.88;;;-3.60;1.00;;;;;;4994377;28;20516;-75
2024/01/30 06:24:37;;;;;;;191.43;109.43;;;-3.60;1.00;;;;;;4993502;28;20053;-77
2024/01/30 06:27:05;;;;;;;172.73;95.50;;;-3.70;1.00;;;;;;5009667;28;20042;-76
2024/01/30 06:29:33;;;;;;;186.88;102.75;;;-3.60;1.00;;;;;;4993803;28;20053;-76
2024/01/30 06:32:01;;;;;;;192.02;103.72;;;-3.70;1.00;;;;;;4994460;28;20048;-75
2024/01/30 06:34:28;;;;;;;193.90;108.40;;;-3.70;1.00;;;;;;4993399;28;20053;-75
2024/01/30 06:36:55;;;;;;;209.95;114.05;;;-3.60;29.00;;;;;;4993678;28;20050;-75
2024/01/30 06:39:23;;;;;;;211.60;112.95;;;-3.60;1.00;;;;;;4993843;28;20049;-77
2024/01/30 06:41:52;;;;;;;227.55;120.63;;;-3.60;1.00;;;;;;4994302;28;20076;-76
2024/01/30 06:44:21;;;;;;;226.02;119.38;;;-3.60;1.00;;;;;;5010306;28;20108;-76
2024/01/30 06:46:48;;;;;;;227.88;120.50;;;-3.60;1.00;;;;;;4994840;28;20046;-77
2024/01/30 06:49:16;;;;;;;226.55;119.05;;;-3.50;1.00;;;;;;4996353;28;20052;-76
2024/01/30 06:51:44;;;;;;;231.43;120.22;;;-3.50;99.90;;;;;;4995690;28;20124;-77
2024/01/30 06:54:11;;;;;;;219.48;116.63;;;-3.40;1.00;;;;;;4994363;28;20045;-76
2024/01/30 06:56:38;;;;;;;237.48;124.43;;;-3.20;99.90;;;;;;4991744;28;20120;-76
2024/01/30 06:59:08;;;;;;;239.20;128.55;;;-3.00;99.90;;;;;;4992687;28;20057;-77
2024/01/30 07:01:36;;;;;;;233.63;125.93;;;-2.70;13.10;;;;;;5001330;28;20156;-77
2024/01/30 07:04:05;;;;;;;234.63;127.50;;;-2.50;1.00;;;;;;5011454;28;20061;-76
2024/01/30 07:06:32;;;;;;;223.40;122.50;;;-2.30;99.90;;;;;;5021856;28;20486;-76
2024/01/30 07:09:00;;;;;;;238.45;128.82;;;-2.10;14.40;;;;;;5003746;28;20710;-76
2024/01/30 07:11:28;;;;;;;268.27;143.88;;;-1.90;1.00;;;;;;4999645;28;20502;-77
2024/01/30 07:13:56;;;;;;;259.27;140.25;;;-1.80;1.00;;;;;;4991001;28;20421;-77
2024/01/30 07:16:25;;;;;;;261.77;144.05;;;-1.80;1.00;;;;;;4991012;28;20085;-77
2024/01/30 07:18:52;;;;;;;242.05;137.13;;;-1.70;1.00;;;;;;4992677;28;20494;-78
2024/01/30 07:21:21;;;;;;;234.10;132.43;;;-1.70;1.00;;;;;;5008449;28;20039;-79
2024/01/30 07:23:49;;;;;;;231.38;129.45;;;-1.80;1.00;;;;;;5008711;28;20050;-77
2024/01/30 07:26:16;;;;;;;221.27;128.68;;;-1.70;1.00;;;;;;4994852;28;20075;-79
2024/01/30 07:28:44;;;;;;;222.35;123.53;;;-1.60;1.00;;;;;;4992789;28;20133;-77
2024/01/30 07:31:11;;;;;;;206.23;119.65;;;-1.50;1.00;;;;;;4994738;28;20469;-76
2024/01/30 07:33:40;;;;;;;214.57;121.05;;;-1.30;1.00;;;;;;4995138;28;20073;-77
2024/01/30 07:36:10;;;;;;;216.70;123.32;;;-1.30;1.00;;;;;;4990226;28;20486;-77
2024/01/30 07:39:01;;;;;;;208.82;117.85;;;-1.00;1.00;;;;;;5008138;28;20084;-78
2024/01/30 07:41:28;;;;;;;205.52;119.10;;;-0.60;99.90;;;;;;4999163;28;20482;-77
2024/01/30 07:44:14;;;;;;;208.45;119.57;;;-0.50;99.90;;;;;;5013968;28;20493;-76
2024/01/30 07:46:51;;;;;;;184.10;107.45;;;-0.40;99.90;;;;;;4998402;28;20054;-75
2024/01/30 07:49:20;;;;;;;232.98;133.32;;;-0.60;99.90;;;;;;5000727;28;20042;-76
2024/01/30 07:51:48;;;;;;;259.95;148.05;;;-0.60;1.00;;;;;;5002550;28;20038;-77
2024/01/30 07:54:15;;;;;;;269.40;152.48;;;-0.60;1.00;;;;;;5000151;28;20034;-76
2024/01/30 07:56:43;;;;;;;238.18;139.60;;;-0.30;99.90;;;;;;5000493;28;20050;-77
2024/01/30 07:59:13;;;;;;;258.25;151.40;;;0.00;99.90;;;;;;4998364;28;20046;-79
2024/01/30 08:01:41;;;;;;;242.65;137.40;;;0.00;99.90;;;;;;4994290;28;20056;-77
2024/01/30 08:04:08;;;;;;;240.10;137.52;;;0.10;99.90;;;;;;5007847;28;20047;-76
2024/01/30 08:06:37;;;;;;;238.60;139.70;;;0.20;99.90;;;;;;4992153;28;20050;-78
2024/01/30 08:09:05;;;;;;;227.02;134.60;;;0.30;99.90;;;;;;4991765;28;20061;-77
2024/01/30 08:11:33;;;;;;;222.05;131.65;;;0.60;99.90;;;;;;5006515;28;20516;-78
2024/01/30 08:14:00;;;;;;;242.05;144.68;;;0.90;99.90;;;;;;5007474;28;20046;-78
2024/01/30 08:16:28;;;;;;;242.23;143.00;;;0.90;99.90;;;;;;4991434;28;20522;-77
2024/01/30 08:18:57;;;;;;;251.27;145.35;;;0.70;99.90;;;;;;4989757;28;20078;-76
2024/01/30 08:21:25;;;;;;;241.45;144.48;;;0.90;99.90;;;;;;5009100;28;20039;-77
2024/01/30 08:23:54;;;;;;;220.65;130.27;;;1.10;99.90;;;;;;4993908;28;20378;-76
2024/01/30 08:26:21;;;;;;;202.88;121.07;;;1.30;99.90;;;;;;4991649;28;20130;-78
2024/01/30 08:28:50;;;;;;;177.30;105.88;;;1.60;99.90;;;;;;4992878;28;20161;-76
2024/01/30 08:31:17;;;;;;;153.65;90.32;;;1.80;99.90;;;;;;4990859;28;20066;-78
2024/01/30 08:33:45;;;;;;;147.00;85.38;;;2.00;99.90;;;;;;4991619;28;20061;-78
2024/01/30 08:36:12;;;;;;;142.75;86.03;;;2.10;49.60;;;;;;4991063;28;20640;-77
2024/01/30 08:38:43;;;;;;;144.05;83.93;;;2.20;69.30;;;;;;5009047;28;20504;-77
2024/01/30 08:41:12;;;;;;;140.23;81.60;;;2.40;71.90;;;;;;4994991;28;20074;-76
2024/01/30 08:43:39;;;;;;;143.32;79.40;;;2.40;27.40;;;;;;5016787;28;20043;-79
2024/01/30 08:46:07;;;;;;;138.27;77.78;;;2.60;43.80;;;;;;5014256;28;20673;-77
2024/01/30 08:48:36;;;;;;;149.68;82.78;;;2.70;1.00;;;;;;5000793;28;20117;-75
2024/01/30 08:51:08;;;;;;;153.55;86.40;;;2.90;2.00;;;;;;5007559;28;20502;-77
2024/01/30 08:53:36;;;;;;;156.38;89.55;;;3.00;1.00;;;;;;5012167;28;20046;-77
2024/01/30 08:56:04;;;;;;;156.02;88.93;;;3.00;1.00;;;;;;5012332;28;20070;-78
2024/01/30 08:58:35;;;;;;;149.23;83.72;;;3.10;1.00;;;;;;5000404;28;20045;-77
2024/01/30 09:01:05;;;;;;;137.50;77.78;;;3.20;1.00;;;;;;5013226;28;20575;-78
2024/01/30 09:03:32;;;;;;;115.32;66.57;;;3.30;1.00;;;;;;4997500;28;20605;-77
2024/01/30 09:06:00;;;;;;;124.65;70.30;;;3.40;1.00;;;;;;5015044;28;20453;-79
2024/01/30 09:08:27;;;;;;;117.53;65.53;;;3.60;1.00;;;;;;5004915;28;20482;-78
2024/01/30 09:10:55;;;;;;;122.70;72.18;;;3.40;1.00;;;;;;5028886;28;20129;-76
2024/01/30 09:13:22;;;;;;;110.10;63.00;;;3.40;1.00;;;;;;5030473;28;20042;-76
2024/01/30 09:15:51;;;;;;;99.00;56.35;;;3.50;1.00;;;;;;5034757;28;20042;-77
2024/01/30 09:18:20;;;;;;;109.90;61.08;;;3.70;1.00;;;;;;5019775;28;20049;-74
2024/01/30 09:20:47;;;;;;;117.95;65.63;;;3.80;1.00;;;;;;5016379;28;20041;-76
2024/01/30 09:23:15;;;;;;;95.90;54.00;;;3.80;1.00;;;;;;5017351;28;20042;-75
2024/01/30 09:25:42;;;;;;;102.00;56.00;;;3.90;1.00;;;;;;5000563;28;20046;-76
2024/01/30 09:28:10;;;;;;;110.50;59.67;;;3.90;1.00;;;;;;5015979;28;20046;-76
2024/01/30 09:30:37;;;;;;;128.30;68.85;;;4.00;1.00;;;;;;5000060;28;20050;-79
2024/01/30 09:33:07;;;;;;;128.13;69.38;;;4.10;1.00;;;;;;4999293;28;20050;-76
2024/01/30 09:35:40;;;;;;;123.72;71.07;;;4.20;1.00;;;;;;5018295;28;20150;-76
2024/01/30 09:38:08;;;;;;;121.50;66.70;;;4.20;1.00;;;;;;5017214;28;20068;-76
2024/01/30 09:40:42;;;;;;;112.80;64.18;;;4.40;1.00;;;;;;5000129;28;20072;-77
2024/01/30 09:43:24;;;;;;;128.75;68.68;;;4.50;1.00;;;;;;5018255;28;20049;-75
2024/01/30 09:45:53;;;;;;;116.28;63.33;;;4.60;1.00;;;;;;5014993;28;20045;-79
2024/01/30 09:48:51;;;;;;;121.65;68.03;;;4.70;1.00;;;;;;5002999;28;20096;-75
2024/01/30 09:51:20;;;;;;;128.70;70.57;;;4.90;1.00;;;;;;4977948;28;20562;-80
2024/01/30 09:53:48;;;;;;;124.72;69.43;;;4.90;1.00;;;;;;4959415;28;20535;-77
2024/01/30 09:56:16;;;;;;;108.55;63.65;;;5.00;1.00;;;;;;4955338;28;20078;-77
2024/01/30 09:58:44;;;;;;;100.22;55.75;;;5.10;1.00;;;;;;4949027;28;20203;-78
2024/01/30 10:01:11;;;;;;;102.97;57.30;;;5.20;1.00;;;;;;4972398;28;20046;-77
2024/01/30 10:03:39;;;;;;;93.25;51.38;;;5.30;1.00;;;;;;4974050;28;20501;-78
2024/01/30 10:06:09;;;;;;;91.72;52.92;;;5.40;1.00;;;;;;4944866;28;20043;-75
2024/01/30 10:08:36;;;;;;;90.18;51.15;;;5.50;1.00;;;;;;4950710;28;20054;-77
2024/01/30 10:11:04;;;;;;;102.03;56.50;;;5.50;1.00;;;;;;4963287;28;20494;-78
2024/01/30 10:13:32;;;;;;;98.25;56.55;;;5.60;1.00;;;;;;4963773;28;20435;-77
2024/01/30 10:15:59;;;;;;;97.65;55.05;;;5.70;1.00;;;;;;4963093;28;20073;-78
2024/01/30 10:18:26;;;;;;;99.43;56.15;;;5.70;1.00;;;;;;4961739;28;20414;-77
2024/01/30 10:20:54;;;;;;;89.82;53.92;;;5.80;1.00;;;;;;4963243;28;20081;-77
2024/01/30 10:23:23;;;;;;;92.70;53.63;;;6.00;1.00;;;;;;5008091;28;20041;-78
2024/01/30 10:25:52;;;;;;;88.05;52.97;;;6.10;1.00;;;;;;4987530;28;20142;-77
2024/01/30 10:28:21;;;;;;;85.75;53.33;;;6.20;1.00;;;;;;4988859;28;20058;-78
2024/01/30 10:30:59;;;;;;;77.90;44.83;;;6.20;1.00;;;;;;5004244;28;20048;-75
2024/01/30 10:33:27;;;;;;;68.00;40.00;;;6.30;1.00;;;;;;4998580;28;20050;-76
2024/01/30 10:35:59;;;;;;;67.53;40.28;;;6.30;1.00;;;;;;5013916;28;20048;-76
2024/01/30 10:38:30;;;;;;;72.38;41.50;;;6.40;1.00;;;;;;5006335;28;20047;-76
2024/01/30 10:40:59;;;;;;;57.00;33.63;;;6.50;1.00;;;;;;5005577;28;20100;-77
2024/01/30 10:43:33;;;;;;;56.45;32.92;;;6.40;1.00;;;;;;4985147;28;20045;-76
2024/01/30 10:46:11;;;;;;;56.28;34.08;;;6.20;1.00;;;;;;5009743;28;20057;-78
2024/01/30 10:48:44;;;;;;;53.17;31.27;;;6.20;1.00;;;;;;4987172;28;20117;-78
2024/01/30 10:51:15;;;;;;;44.35;26.80;;;6.50;1.00;;;;;;5007317;28;20064;-78
2024/01/30 10:53:48;;;;;;;49.63;28.83;;;6.50;1.00;;;;;;5001362;28;20466;-77
2024/01/30 10:56:17;;;;;;;52.15;30.67;;;6.60;1.00;;;;;;4989805;28;20053;-78
2024/01/30 10:58:45;;;;;;;38.70;22.33;;;6.60;1.00;;;;;;4993817;28;20064;-76
2024/01/30 11:01:13;;;;;;;32.88;19.90;;;6.60;1.00;;;;;;5011680;28;20088;-76
2024/01/30 11:03:41;;;;;;;38.85;22.55;;;6.80;1.00;;;;;;4994253;28;20145;-76
2024/01/30 11:06:13;;;;;;;33.17;20.55;;;6.90;1.00;;;;;;5009669;28;20136;-78
2024/01/30 11:08:41;;;;;;;37.10;21.90;;;7.00;1.00;;;;;;5010179;28;20041;-78
2024/01/30 11:11:11;;;;;;;39.65;19.92;;;7.10;1.00;;;;;;4998016;28;20042;-79
2024/01/30 11:13:39;;;;;;;33.78;20.58;;;7.00;1.00;;;;;;5009243;28;20064;-79
2024/01/30 11:16:07;;;;;;;30.45;16.85;;;7.00;1.00;;;;;;4993086;28;20137;-76
2024/01/30 11:18:37;;;;;;;26.52;15.25;;;7.10;1.00;;;;;;4995409;28;20050;-77
2024/01/30 11:21:06;;;;;;;37.53;21.58;;;7.20;1.00;;;;;;4998981;28;20054;-77
2024/01/30 11:23:36;;;;;;;29.13;17.73;;;7.20;1.00;;;;;;5000977;28;20042;-76
2024/01/30 11:26:04;;;;;;;21.55;13.88;;;7.20;1.00;;;;;;4994746;28;20053;-76
2024/01/30 11:28:39;;;;;;;20.65;12.45;;;7.30;1.00;;;;;;4994078;28;20130;-77
2024/01/30 11:31:08;;;;;;;20.52;11.88;;;7.30;1.00;;;;;;4994941;28;20046;-78
2024/01/30 11:33:35;;;;;;;23.95;12.43;;;7.30;1.00;;;;;;4994726;28;20041;-76
2024/01/30 11:36:06;;;;;;;16.48;10.52;;;7.30;1.00;;;;;;4993392;28;20045;-75
2024/01/30 11:38:34;;;;;;;13.95;7.55;;;7.30;1.00;;;;;;4994737;28;20058;-79
2024/01/30 11:41:02;;;;;;;14.43;6.60;;;7.40;1.00;;;;;;5010629;28;20095;-79
2024/01/30 11:43:30;;;;;;;14.27;8.30;;;7.30;1.00;;;;;;4992660;28;20449;-75
2024/01/30 11:45:59;;;;;;;17.33;9.02;;;7.40;1.00;;;;;;4993372;28;20046;-78
2024/01/30 11:48:28;;;;;;;17.27;9.20;;;7.50;1.00;;;;;;5012376;28;20097;-76
2024/01/30 11:50:55;;;;;;;15.63;8.68;;;7.60;1.00;;;;;;4995238;28;20050;-77
2024/01/30 11:53:24;;;;;;;18.83;10.75;;;7.70;1.00;;;;;;4995702;28;20041;-77
2024/01/30 11:55:52;;;;;;;18.35;9.32;;;7.80;1.00;;;;;;4997213;28;20148;-79
2024/01/30 11:58:20;;;;;;;19.40;9.75;;;7.90;1.00;;;;;;4982133;28;20058;-78
2024/01/30 12:00:55;;;;;;;18.98;10.88;;;7.80;1.00;;;;;;4983204;28;20046;-78
2024/01/30 12:03:24;;;;;;;22.85;13.00;;;7.80;1.00;;;;;;4985001;28;20052;-76
2024/01/30 12:05:57;;;;;;;12.30;7.82;;;7.80;1.00;;;;;;5001576;28;20144;-78
2024/01/30 12:08:25;;;;;;;19.75;9.00;;;7.80;1.00;;;;;;5000880;28;20169;-77
2024/01/30 12:10:58;;;;;;;18.85;8.93;;;7.70;1.00;;;;;;5001927;28;20041;-76
2024/01/30 12:13:27;;;;;;;20.63;12.75;;;7.80;1.00;;;;;;5001098;28;20037;-78
2024/01/30 12:15:55;;;;;;;14.05;8.20;;;7.90;1.00;;;;;;4988160;28;20143;-75
2024/01/30 12:18:24;;;;;;;15.52;9.10;;;8.00;1.00;;;;;;4988174;28;20049;-77
2024/01/30 12:20:59;;;;;;;15.80;8.73;;;8.10;1.00;;;;;;5004371;28;20042;-76
2024/01/30 12:23:28;;;;;;;17.33;8.50;;;8.10;1.00;;;;;;4989511;28;20041;-76
2024/01/30 12:25:56;;;;;;;16.55;10.30;;;8.10;1.00;;;;;;4987632;28;20053;-77
2024/01/30 12:28:23;;;;;;;17.25;9.80;;;8.20;1.00;;;;;;5006740;28;20069;-74
2024/01/30 12:30:51;;;;;;;14.60;8.82;;;8.30;1.00;;;;;;5004187;28;20057;-76
2024/01/30 12:33:19;;;;;;;14.63;7.40;;;8.30;1.00;;;;;;4997469;28;20073;-75
2024/01/30 12:35:51;;;;;;;11.45;6.60;;;8.30;1.00;;;;;;4987913;28;20104;-78